Time;durP1;ratioP1;P1;durP2;ratioP2;P2;SDS_P1;SDS_P2;PMS_P1;PMS_P2;Temp;Humidity;BMP_temperature;BMP_pressure;BME280_temperature;BME280_humidity;BME280_pressure;Samples;Min_cycle;Max_cycle;Signal;HPM_P1;HPM_P2
2022/03/21 00:01:22;;;;;;;;;;;9.80;43.60;;;;;;2326081;58;20142;-74
2022/03/21 00:03:49;;;;;;;;;;;9.70;43.40;;;;;;2326265;58;20091;-74
2022/03/21 00:06:15;;;;;;;;;;;9.70;42.60;;;;;;2326386;58;20083;-75
2022/03/21 00:08:43;;;;;;;;;;;9.70;43.20;;;;;;2326112;58;20134;-74
2022/03/21 00:11:10;;;;;;;;;;;9.70;42.10;;;;;;2326442;57;20078;-74
2022/03/21 00:13:38;;;;;;;;;;;9.70;41.80;;;;;;2325901;58;20095;-74
2022/03/21 00:16:05;;;;;;;;;;;9.60;41.40;;;;;;2326363;58;20067;-75
2022/03/21 00:18:33;;;;;;;;;;;9.50;41.10;;;;;;2567837;54;20067;-74
2022/03/21 00:20:59;;;;;;;;;;;9.60;42.90;;;;;;2326179;58;20127;-74
2022/03/21 00:23:26;;;;;;;;;;;9.50;43.20;;;;;;2326342;58;20128;-74
2022/03/21 00:25:53;;;;;;;;;;;9.50;42.80;;;;;;2326480;58;20071;-74
2022/03/21 00:28:19;;;;;;;;;;;9.50;42.50;;;;;;2328017;58;20115;-74
2022/03/21 00:30:46;;;;;;;;;;;9.50;41.70;;;;;;2328460;58;20075;-74
2022/03/21 00:33:13;;;;;;;;;;;9.50;42.10;;;;;;2328209;58;20298;-74
2022/03/21 00:35:42;;;;;;;;;;;9.50;42.30;;;;;;2571107;54;20110;-74
2022/03/21 00:38:11;;;;;;;;;;;9.50;42.60;;;;;;2326700;58;20075;-75
2022/03/21 00:40:38;;;;;;;;;;;9.40;41.80;;;;;;2326606;58;20142;-74
2022/03/21 00:43:07;;;;;;;;;;;9.30;42.20;;;;;;2326815;58;20064;-74
2022/03/21 00:45:34;;;;;;;;;;;9.30;42.80;;;;;;2326680;58;20075;-74
2022/03/21 00:48:00;;;;;;;;;;;9.30;43.10;;;;;;2569310;54;20115;-74
2022/03/21 00:50:27;;;;;;;;;;;9.30;43.10;;;;;;2326025;58;20116;-74
2022/03/21 00:52:54;;;;;;;;;;;9.30;42.10;;;;;;2326513;58;20083;-75
2022/03/21 00:55:22;;;;;;;;;;;9.30;42.40;;;;;;2326511;58;20071;-74
2022/03/21 00:57:48;;;;;;;;;;;9.20;42.00;;;;;;2326722;58;20126;-73
2022/03/21 01:00:16;;;;;;;;;;;9.20;42.70;;;;;;2326121;58;20080;-74
2022/03/21 01:02:43;;;;;;;;;;;9.20;42.00;;;;;;2569323;53;20068;-75
2022/03/21 01:05:11;;;;;;;;;;;9.20;41.90;;;;;;2326558;58;20171;-74
2022/03/21 01:07:37;;;;;;;;;;;9.20;43.70;;;;;;2326333;58;20094;-74
2022/03/21 01:10:05;;;;;;;;;;;9.20;43.50;;;;;;2326087;58;20055;-74
2022/03/21 01:12:32;;;;;;;;;;;9.20;43.90;;;;;;2326720;58;20079;-74
2022/03/21 01:14:59;;;;;;;;;;;9.20;43.20;;;;;;2326788;58;20115;-74
2022/03/21 01:17:25;;;;;;;;;;;9.10;42.80;;;;;;2326624;58;20068;-75
2022/03/21 01:19:52;;;;;;;;;;;9.10;42.50;;;;;;2326218;58;20440;-74
2022/03/21 01:22:18;;;;;;;;;;;9.10;42.40;;;;;;2569049;53;20347;-74
2022/03/21 01:24:45;;;;;;;;;;;9.10;42.40;;;;;;2326193;58;20075;-74
2022/03/21 01:27:11;;;;;;;;;;;9.10;42.30;;;;;;2326066;58;20063;-74
2022/03/21 01:29:38;;;;;;;;;;;9.10;43.10;;;;;;2325861;58;20142;-73
2022/03/21 01:32:05;;;;;;;;;;;9.10;42.50;;;;;;2325735;58;20083;-73
2022/03/21 01:34:31;;;;;;;;;;;9.00;43.00;;;;;;2326410;58;20122;-74
2022/03/21 01:36:58;;;;;;;;;;;9.00;42.80;;;;;;2326710;58;20421;-74
2022/03/21 01:39:24;;;;;;;;;;;9.10;44.40;;;;;;2326295;58;20059;-73
2022/03/21 01:41:52;;;;;;;;;;;9.00;45.10;;;;;;2569537;53;20075;-75
2022/03/21 01:44:20;;;;;;;;;;;9.00;43.30;;;;;;2325687;58;20137;-75
2022/03/21 01:46:46;;;;;;;;;;;9.00;43.40;;;;;;2568691;54;20100;-74
2022/03/21 01:49:13;;;;;;;;;;;9.00;43.70;;;;;;2326270;58;20087;-75
2022/03/21 01:51:40;;;;;;;;;;;9.00;45.60;;;;;;2326831;58;20106;-75
2022/03/21 01:56:53;;;;;;;;;;;8.90;43.90;;;;;;2326723;58;20382;-75
2022/03/21 01:59:19;;;;;;;;;;;8.90;44.70;;;;;;2326212;58;20087;-75
2022/03/21 02:01:46;;;;;;;;;;;8.90;43.90;;;;;;2326599;58;20087;-74
2022/03/21 02:04:13;;;;;;;;;;;8.90;44.20;;;;;;2326256;58;20079;-74
2022/03/21 02:06:41;;;;;;;;;;;8.90;44.20;;;;;;2326855;58;20059;-74
2022/03/21 02:09:08;;;;;;;;;;;8.90;44.10;;;;;;2325824;58;20110;-74
2022/03/21 02:11:34;;;;;;;;;;;8.80;44.40;;;;;;2326592;58;20060;-74
2022/03/21 02:14:01;;;;;;;;;;;8.90;45.10;;;;;;2326832;58;20079;-74
2022/03/21 02:16:29;;;;;;;;;;;8.90;43.90;;;;;;2568720;54;20059;-73
2022/03/21 02:18:58;;;;;;;;;;;8.80;44.50;;;;;;2326429;58;20079;-74
2022/03/21 02:21:27;;;;;;;;;;;8.80;44.70;;;;;;2326524;58;20063;-74
2022/03/21 02:23:57;;;;;;;;;;;8.80;44.30;;;;;;2569082;54;20135;-74
2022/03/21 02:26:24;;;;;;;;;;;8.80;45.40;;;;;;2325939;58;20080;-74
2022/03/21 02:28:50;;;;;;;;;;;8.80;45.50;;;;;;2326404;58;20090;-74
2022/03/21 02:31:17;;;;;;;;;;;8.80;46.90;;;;;;2326287;58;20094;-74
2022/03/21 02:33:46;;;;;;;;;;;8.70;47.10;;;;;;2400577;54;20055;-74
2022/03/21 02:36:14;;;;;;;;;;;8.70;45.10;;;;;;2543908;54;20186;-75
2022/03/21 02:38:41;;;;;;;;;;;8.70;46.30;;;;;;2305654;58;20125;-74
2022/03/21 02:41:08;;;;;;;;;;;8.70;45.90;;;;;;2305950;58;20062;-74
2022/03/21 02:43:48;;;;;;;;;;;8.70;45.40;;;;;;2306366;58;20124;-76
2022/03/21 02:46:17;;;;;;;;;;;8.70;45.70;;;;;;2543667;54;20123;-76
2022/03/21 02:48:44;;;;;;;;;;;8.70;46.60;;;;;;2305534;58;20385;-76
2022/03/21 02:51:11;;;;;;;;;;;8.60;45.90;;;;;;2306022;58;20119;-76
2022/03/21 02:53:39;;;;;;;;;;;8.60;46.30;;;;;;2306008;58;20083;-76
2022/03/21 02:56:05;;;;;;;;;;;8.60;46.00;;;;;;2544005;54;20074;-76
2022/03/21 02:58:32;;;;;;;;;;;8.60;45.70;;;;;;2306263;58;20121;-76
2022/03/21 03:01:06;;;;;;;;;;;8.60;45.60;;;;;;2305343;58;20318;-76
2022/03/21 03:03:32;;;;;;;;;;;8.60;46.00;;;;;;2544252;54;20071;-76
2022/03/21 03:05:59;;;;;;;;;;;8.60;46.20;;;;;;2305854;58;20074;-76
2022/03/21 03:08:25;;;;;;;;;;;8.60;45.60;;;;;;2306000;58;20342;-74
2022/03/21 03:10:52;;;;;;;;;;;8.50;44.90;;;;;;2305606;58;20332;-74
2022/03/21 03:13:18;;;;;;;;;;;8.50;45.40;;;;;;2306158;58;20146;-74
2022/03/21 03:15:45;;;;;;;;;;;8.40;45.30;;;;;;2306287;58;20082;-74
2022/03/21 03:18:11;;;;;;;;;;;8.40;45.40;;;;;;2543452;54;20071;-74
2022/03/21 03:20:38;;;;;;;;;;;8.40;45.50;;;;;;2305708;58;20321;-74
2022/03/21 03:23:05;;;;;;;;;;;8.40;45.30;;;;;;2305763;58;20309;-74
2022/03/21 03:25:32;;;;;;;;;;;8.40;45.00;;;;;;2306061;58;20075;-74
2022/03/21 03:27:58;;;;;;;;;;;8.40;44.70;;;;;;2305880;58;20352;-74
2022/03/21 03:30:25;;;;;;;;;;;8.30;44.80;;;;;;2305985;58;20114;-74
2022/03/21 03:32:51;;;;;;;;;;;8.30;45.40;;;;;;2543374;54;20099;-74
2022/03/21 03:35:18;;;;;;;;;;;8.30;45.30;;;;;;2305746;58;20070;-74
2022/03/21 03:37:45;;;;;;;;;;;8.20;45.20;;;;;;2543979;54;20079;-74
2022/03/21 03:40:12;;;;;;;;;;;8.20;44.60;;;;;;2305996;58;20055;-77
2022/03/21 03:42:39;;;;;;;;;;;8.20;45.00;;;;;;2306007;58;20134;-77
2022/03/21 03:45:07;;;;;;;;;;;8.10;44.60;;;;;;2543723;54;20298;-74
2022/03/21 03:47:33;;;;;;;;;;;8.10;45.30;;;;;;2305975;58;20119;-74
2022/03/21 03:50:00;;;;;;;;;;;8.10;45.30;;;;;;2305866;58;20150;-74
2022/03/21 03:52:26;;;;;;;;;;;8.10;45.80;;;;;;2305878;58;20074;-75
2022/03/21 03:54:53;;;;;;;;;;;8.10;45.70;;;;;;2305747;58;20119;-74
2022/03/21 03:57:20;;;;;;;;;;;8.10;45.60;;;;;;2306141;58;20071;-74
2022/03/21 03:59:47;;;;;;;;;;;8.10;46.40;;;;;;2543871;54;20051;-76
2022/03/21 04:02:13;;;;;;;;;;;8.00;46.80;;;;;;2305730;58;20078;-75
2022/03/21 04:04:40;;;;;;;;;;;8.00;45.70;;;;;;2305973;58;20079;-77
2022/03/21 04:07:06;;;;;;;;;;;8.00;45.90;;;;;;2306079;58;20325;-75
2022/03/21 04:09:33;;;;;;;;;;;7.90;46.20;;;;;;2305890;58;20317;-74
2022/03/21 04:11:59;;;;;;;;;;;8.00;46.70;;;;;;2305467;58;20302;-77
2022/03/21 04:14:26;;;;;;;;;;;7.90;46.00;;;;;;2543059;54;20084;-77
2022/03/21 04:16:52;;;;;;;;;;;7.90;45.10;;;;;;2306172;58;20082;-77
2022/03/21 04:19:19;;;;;;;;;;;7.90;47.20;;;;;;2305010;58;20090;-77
2022/03/21 04:21:46;;;;;;;;;;;7.90;47.50;;;;;;2544564;54;20071;-77
2022/03/21 04:24:13;;;;;;;;;;;7.90;48.60;;;;;;2306592;58;20086;-77
2022/03/21 04:26:39;;;;;;;;;;;7.90;47.20;;;;;;2306184;58;20078;-75
2022/03/21 04:29:06;;;;;;;;;;;7.90;47.50;;;;;;2305600;58;20090;-77
2022/03/21 04:31:32;;;;;;;;;;;7.90;47.90;;;;;;2305703;58;20329;-77
2022/03/21 04:33:59;;;;;;;;;;;7.80;47.70;;;;;;2306332;58;20210;-75
2022/03/21 04:36:25;;;;;;;;;;;7.90;48.00;;;;;;2306558;58;20138;-77
2022/03/21 04:38:52;;;;;;;;;;;7.80;47.80;;;;;;2543721;54;20087;-76
2022/03/21 04:41:18;;;;;;;;;;;7.80;48.10;;;;;;2306421;58;20074;-77
2022/03/21 04:43:45;;;;;;;;;;;7.80;47.60;;;;;;2305859;58;20075;-77
2022/03/21 04:46:11;;;;;;;;;;;7.80;47.90;;;;;;2305972;58;20115;-77
2022/03/21 04:48:38;;;;;;;;;;;7.80;48.40;;;;;;2306284;58;20092;-77
2022/03/21 04:51:04;;;;;;;;;;;7.70;48.00;;;;;;2305872;58;20194;-75
2022/03/21 04:53:31;;;;;;;;;;;7.70;48.20;;;;;;2305903;58;20087;-77
2022/03/21 04:55:57;;;;;;;;;;;7.70;47.40;;;;;;2306510;58;20086;-75
2022/03/21 04:58:24;;;;;;;;;;;7.60;48.40;;;;;;2544248;54;20091;-75
2022/03/21 05:00:50;;;;;;;;;;;7.60;48.40;;;;;;2543606;54;20059;-75
2022/03/21 05:03:17;;;;;;;;;;;7.60;48.30;;;;;;2305521;58;20103;-75
2022/03/21 05:05:44;;;;;;;;;;;7.60;48.30;;;;;;2306249;58;20382;-75
2022/03/21 05:08:10;;;;;;;;;;;7.60;48.80;;;;;;2305984;58;20082;-75
2022/03/21 05:10:37;;;;;;;;;;;7.60;48.00;;;;;;2305710;58;20067;-75
2022/03/21 05:13:03;;;;;;;;;;;7.60;48.70;;;;;;2306041;58;20079;-75
2022/03/21 05:15:30;;;;;;;;;;;7.70;48.60;;;;;;2306096;58;20078;-75
2022/03/21 05:17:56;;;;;;;;;;;7.60;48.80;;;;;;2543799;54;20119;-76
2022/03/21 05:20:24;;;;;;;;;;;7.60;49.10;;;;;;2305944;58;20066;-75
2022/03/21 05:31:07;;;;;;;;;;;7.60;49.60;;;;;;2306125;58;20123;-76
2022/03/21 05:36:21;;;;;;;;;;;7.60;48.90;;;;;;2305349;58;20102;-74
2022/03/21 05:38:48;;;;;;;;;;;7.50;49.10;;;;;;2305965;58;20134;-77
2022/03/21 05:41:14;;;;;;;;;;;7.50;49.30;;;;;;2306214;58;20166;-77
2022/03/21 05:43:41;;;;;;;;;;;7.50;50.60;;;;;;2305986;58;20301;-76
2022/03/21 05:46:07;;;;;;;;;;;7.50;50.00;;;;;;2305835;58;20147;-76
2022/03/21 05:48:58;;;;;;;;;;;7.50;49.50;;;;;;2305874;58;20131;-76
2022/03/21 05:51:27;;;;;;;;;;;7.50;49.80;;;;;;2305931;58;20139;-75
2022/03/21 05:53:54;;;;;;;;;;;7.40;48.90;;;;;;2305787;58;20103;-75
2022/03/21 05:56:21;;;;;;;;;;;7.40;49.30;;;;;;2544153;54;20063;-75
2022/03/21 05:58:47;;;;;;;;;;;7.40;49.70;;;;;;2305939;58;20083;-75
2022/03/21 06:01:21;;;;;;;;;;;7.40;49.30;;;;;;2305703;58;20059;-77
2022/03/21 06:03:48;;;;;;;;;;;7.40;49.30;;;;;;2306209;58;20138;-75
2022/03/21 06:06:15;;;;;;;;;;;7.40;49.80;;;;;;2543973;54;20063;-75
2022/03/21 06:08:42;;;;;;;;;;;7.40;49.60;;;;;;2305435;58;20079;-76
2022/03/21 06:11:09;;;;;;;;;;;7.40;50.20;;;;;;2544024;54;20178;-76
2022/03/21 06:13:37;;;;;;;;;;;7.40;50.00;;;;;;2305899;58;20083;-76
2022/03/21 06:16:05;;;;;;;;;;;7.40;48.90;;;;;;2306123;58;20090;-75
2022/03/21 06:18:32;;;;;;;;;;;7.40;49.50;;;;;;2306345;58;20105;-76
2022/03/21 06:20:58;;;;;;;;;;;7.40;49.70;;;;;;2305700;58;20083;-75
2022/03/21 06:23:25;;;;;;;;;;;7.40;49.10;;;;;;2305898;58;20079;-76
2022/03/21 06:25:53;;;;;;;;;;;7.40;48.70;;;;;;2305201;58;20342;-75
2022/03/21 06:28:20;;;;;;;;;;;7.40;48.30;;;;;;2306696;58;20063;-75
2022/03/21 06:30:46;;;;;;;;;;;7.40;47.80;;;;;;2305755;58;20114;-75
2022/03/21 06:33:13;;;;;;;;;;;7.30;48.00;;;;;;2306500;58;20339;-75
2022/03/21 06:35:40;;;;;;;;;;;7.30;48.40;;;;;;2306093;58;20063;-75
2022/03/21 06:38:06;;;;;;;;;;;7.30;48.70;;;;;;2544378;54;20059;-75
2022/03/21 06:40:33;;;;;;;;;;;7.40;50.10;;;;;;2305704;58;20232;-75
2022/03/21 06:43:00;;;;;;;;;;;7.40;49.20;;;;;;2544352;54;20067;-75
2022/03/21 06:45:26;;;;;;;;;;;7.40;49.00;;;;;;2544374;54;20070;-74
2022/03/21 06:47:53;;;;;;;;;;;7.40;51.00;;;;;;2544168;54;20142;-75
2022/03/21 06:50:19;;;;;;;;;;;7.50;50.50;;;;;;2306061;58;20115;-75
2022/03/21 06:52:46;;;;;;;;;;;7.50;49.80;;;;;;2305919;58;20140;-75
2022/03/21 06:55:12;;;;;;;;;;;7.50;48.90;;;;;;2306329;58;20325;-75
2022/03/21 06:57:39;;;;;;;;;;;7.40;48.80;;;;;;2306367;58;20143;-75
2022/03/21 07:00:07;;;;;;;;;;;7.50;48.10;;;;;;2305276;58;20071;-75
2022/03/21 07:02:34;;;;;;;;;;;7.40;47.50;;;;;;2544228;54;20127;-75
2022/03/21 07:05:00;;;;;;;;;;;7.40;47.30;;;;;;2306162;58;20142;-75
2022/03/21 07:07:27;;;;;;;;;;;7.40;46.80;;;;;;2306135;58;20063;-75
2022/03/21 07:09:54;;;;;;;;;;;7.40;47.50;;;;;;2305893;58;20078;-75
2022/03/21 07:12:20;;;;;;;;;;;7.40;47.30;;;;;;2306231;58;20369;-76
2022/03/21 07:14:48;;;;;;;;;;;7.40;47.30;;;;;;2306611;58;20359;-75
2022/03/21 07:17:18;;;;;;;;;;;7.50;48.40;;;;;;2543593;54;20127;-75
2022/03/21 07:19:44;;;;;;;;;;;7.50;48.00;;;;;;2305849;58;20082;-75
2022/03/21 07:22:11;;;;;;;;;;;7.50;47.60;;;;;;2544090;54;20055;-75
2022/03/21 07:24:38;;;;;;;;;;;7.60;47.90;;;;;;2305783;58;20078;-75
2022/03/21 07:27:05;;;;;;;;;;;7.60;48.50;;;;;;2306199;58;20338;-75
2022/03/21 07:29:31;;;;;;;;;;;7.60;48.10;;;;;;2305894;58;20118;-75
2022/03/21 07:31:58;;;;;;;;;;;7.60;47.90;;;;;;2305703;58;20103;-75
2022/03/21 07:34:24;;;;;;;;;;;7.70;48.20;;;;;;2306078;58;20350;-75
2022/03/21 07:36:51;;;;;;;;;;;7.80;49.00;;;;;;2304758;58;20078;-75
2022/03/21 07:39:18;;;;;;;;;;;7.80;48.90;;;;;;2305861;58;20075;-75
2022/03/21 07:41:45;;;;;;;;;;;7.80;48.00;;;;;;2306175;58;20115;-75
2022/03/21 07:44:11;;;;;;;;;;;7.90;48.30;;;;;;2305673;58;20146;-76
2022/03/21 07:49:32;;;;;;;;;;;8.00;49.10;;;;;;2294207;58;20116;-74
2022/03/21 07:52:00;;;;;;;;;;;8.10;49.60;;;;;;2305851;58;20134;-75
2022/03/21 07:54:27;;;;;;;;;;;8.20;49.00;;;;;;2305374;58;20067;-75
2022/03/21 07:56:53;;;;;;;;;;;8.20;48.00;;;;;;2302275;58;20135;-74
2022/03/21 07:59:20;;;;;;;;;;;8.20;47.80;;;;;;2305638;58;20132;-75
2022/03/21 08:01:46;;;;;;;;;;;8.30;47.00;;;;;;2305055;58;20071;-75
2022/03/21 08:04:13;;;;;;;;;;;8.30;47.30;;;;;;2305649;58;20119;-74
2022/03/21 08:06:39;;;;;;;;;;;8.30;47.40;;;;;;2304872;58;20127;-75
2022/03/21 08:09:07;;;;;;;;;;;8.40;47.90;;;;;;2305886;58;20154;-75
2022/03/21 08:11:33;;;;;;;;;;;8.40;47.40;;;;;;2305811;58;20071;-75
2022/03/21 08:14:00;;;;;;;;;;;8.40;46.70;;;;;;2305435;58;20070;-75
2022/03/21 08:16:26;;;;;;;;;;;8.50;47.40;;;;;;2305635;58;20134;-75
2022/03/21 08:18:53;;;;;;;;;;;8.60;47.40;;;;;;2305352;58;20147;-75
2022/03/21 08:21:20;;;;;;;;;;;8.60;47.40;;;;;;2543498;54;20301;-74
2022/03/21 08:23:47;;;;;;;;;;;8.60;47.50;;;;;;2304193;58;20066;-75
2022/03/21 08:26:13;;;;;;;;;;;8.70;46.80;;;;;;2305830;58;20209;-74
2022/03/21 08:28:40;;;;;;;;;;;8.70;47.90;;;;;;2305585;58;20449;-75
2022/03/21 08:31:06;;;;;;;;;;;8.80;47.90;;;;;;2305219;58;20178;-74
2022/03/21 08:33:33;;;;;;;;;;;8.80;46.60;;;;;;2305031;54;20094;-74
2022/03/21 08:35:59;;;;;;;;;;;8.80;46.20;;;;;;2336525;57;20094;-74
2022/03/21 08:38:26;;;;;;;;;;;8.90;48.00;;;;;;2335714;57;20106;-74
2022/03/21 08:40:52;;;;;;;;;;;8.90;47.20;;;;;;2336228;57;20186;-73
2022/03/21 08:43:19;;;;;;;;;;;9.00;45.90;;;;;;2362531;57;20078;-74
2022/03/21 08:45:47;;;;;;;;;;;9.00;45.80;;;;;;2364133;57;20122;-74
2022/03/21 08:48:14;;;;;;;;;;;9.00;44.70;;;;;;2364799;57;20077;-74
2022/03/21 08:50:40;;;;;;;;;;;9.10;44.90;;;;;;2363286;57;20082;-74
2022/03/21 08:53:08;;;;;;;;;;;9.00;44.80;;;;;;2363956;57;20117;-74
2022/03/21 08:55:34;;;;;;;;;;;9.10;44.30;;;;;;2365109;57;20128;-74
2022/03/21 08:58:01;;;;;;;;;;;9.10;44.80;;;;;;2364802;57;20352;-74
2022/03/21 09:00:27;;;;;;;;;;;9.10;45.00;;;;;;2364104;57;20109;-74
2022/03/21 09:02:55;;;;;;;;;;;9.20;44.80;;;;;;2615716;52;20392;-74
2022/03/21 09:05:22;;;;;;;;;;;9.20;45.30;;;;;;2363997;57;20413;-74
2022/03/21 09:07:48;;;;;;;;;;;9.20;46.30;;;;;;2363489;57;20090;-75
2022/03/21 09:10:16;;;;;;;;;;;9.30;46.70;;;;;;2614585;53;20070;-74
2022/03/21 09:12:43;;;;;;;;;;;9.40;45.40;;;;;;2363307;57;20082;-74
2022/03/21 09:15:09;;;;;;;;;;;9.40;44.90;;;;;;2364703;57;20105;-74
2022/03/21 09:17:37;;;;;;;;;;;9.40;45.80;;;;;;2364814;57;20114;-76
2022/03/21 09:20:04;;;;;;;;;;;9.50;45.80;;;;;;2364917;57;20117;-74
2022/03/21 09:22:32;;;;;;;;;;;9.50;46.30;;;;;;2365096;57;20178;-74
2022/03/21 09:24:59;;;;;;;;;;;9.60;47.10;;;;;;2615751;53;20098;-74
2022/03/21 09:27:27;;;;;;;;;;;9.60;46.30;;;;;;2364564;57;20151;-74
2022/03/21 09:29:54;;;;;;;;;;;9.70;46.40;;;;;;2364606;57;20090;-74
2022/03/21 09:32:20;;;;;;;;;;;9.70;46.10;;;;;;2363507;57;20062;-74
2022/03/21 09:34:47;;;;;;;;;;;9.80;46.10;;;;;;2616102;53;20058;-74
2022/03/21 09:37:13;;;;;;;;;;;9.90;46.70;;;;;;2365135;57;20062;-74
2022/03/21 09:39:40;;;;;;;;;;;9.90;44.10;;;;;;2363247;57;20074;-74
2022/03/21 09:42:07;;;;;;;;;;;9.90;44.30;;;;;;2364600;57;20117;-74
2022/03/21 09:44:34;;;;;;;;;;;10.00;46.00;;;;;;2365365;57;20086;-74
2022/03/21 09:48:08;;;;;;;;;;;10.10;46.70;;;;;;2365220;57;20070;-73
2022/03/21 09:50:35;;;;;;;;;;;10.10;45.40;;;;;;2365028;57;20077;-74
2022/03/21 09:53:02;;;;;;;;;;;10.20;45.30;;;;;;2363978;57;20082;-74
2022/03/21 09:55:28;;;;;;;;;;;10.20;45.40;;;;;;2364773;57;20161;-74
2022/03/21 09:57:55;;;;;;;;;;;10.30;46.30;;;;;;2365063;57;20362;-74
2022/03/21 10:00:22;;;;;;;;;;;10.30;46.10;;;;;;2364804;57;20233;-74
2022/03/21 10:02:48;;;;;;;;;;;10.40;46.40;;;;;;2365067;57;20054;-74
2022/03/21 10:05:30;;;;;;;;;;;10.40;46.00;;;;;;2365202;57;20193;-74
2022/03/21 10:08:09;;;;;;;;;;;10.50;46.70;;;;;;2365198;57;20388;-74
2022/03/21 10:10:35;;;;;;;;;;;10.50;45.80;;;;;;2364291;57;20102;-74
2022/03/21 10:13:02;;;;;;;;;;;10.60;45.30;;;;;;2364562;57;20125;-74
2022/03/21 10:15:29;;;;;;;;;;;10.60;44.30;;;;;;2365307;57;20074;-74
2022/03/21 10:18:04;;;;;;;;;;;10.60;43.90;;;;;;2365049;57;20058;-74
2022/03/21 10:20:32;;;;;;;;;;;10.70;45.40;;;;;;2365028;57;20305;-73
2022/03/21 10:23:14;;;;;;;;;;;10.70;45.50;;;;;;2364973;57;20173;-74
2022/03/21 10:25:40;;;;;;;;;;;10.70;43.70;;;;;;2616143;53;20125;-75
2022/03/21 10:28:07;;;;;;;;;;;10.70;44.20;;;;;;2364684;57;20070;-74
2022/03/21 10:30:41;;;;;;;;;;;10.80;44.90;;;;;;2362067;57;20074;-73
2022/03/21 10:33:08;;;;;;;;;;;10.90;45.50;;;;;;2365129;57;20078;-74
2022/03/21 10:35:43;;;;;;;;;;;11.00;43.50;;;;;;2364870;57;20062;-73
2022/03/21 10:38:10;;;;;;;;;;;11.00;43.30;;;;;;2365304;57;20173;-73
2022/03/21 10:40:42;;;;;;;;;;;11.10;42.00;;;;;;2365108;57;20114;-74
2022/03/21 10:43:10;;;;;;;;;;;11.10;42.00;;;;;;2365208;57;20280;-74
2022/03/21 10:45:41;;;;;;;;;;;11.10;40.70;;;;;;2363219;57;20074;-74
2022/03/21 10:48:09;;;;;;;;;;;11.20;41.70;;;;;;2364097;57;20074;-74
2022/03/21 10:50:36;;;;;;;;;;;11.30;44.00;;;;;;2365049;57;20110;-75
2022/03/21 10:53:03;;;;;;;;;;;11.30;41.90;;;;;;2364086;57;20082;-74
2022/03/21 10:55:30;;;;;;;;;;;11.40;42.50;;;;;;2364854;57;20312;-75
2022/03/21 10:57:56;;;;;;;;;;;11.40;42.50;;;;;;2364954;57;20113;-73
2022/03/21 11:00:26;;;;;;;;;;;11.50;42.50;;;;;;2364733;57;20372;-73
2022/03/21 11:02:54;;;;;;;;;;;11.60;41.70;;;;;;2365067;57;20082;-73
2022/03/21 11:05:21;;;;;;;;;;;11.70;40.70;;;;;;2365098;57;20070;-73
2022/03/21 11:07:49;;;;;;;;;;;11.70;39.20;;;;;;2364933;57;20193;-74
2022/03/21 11:10:16;;;;;;;;;;;11.80;39.60;;;;;;2363165;57;20126;-74
2022/03/21 11:12:43;;;;;;;;;;;11.80;40.30;;;;;;2365164;57;20054;-75
2022/03/21 11:15:10;;;;;;;;;;;11.90;40.60;;;;;;2364953;57;20222;-74
2022/03/21 11:17:37;;;;;;;;;;;12.00;41.10;;;;;;2365255;57;20066;-74
2022/03/21 11:20:05;;;;;;;;;;;12.10;42.10;;;;;;2364890;57;20356;-75
2022/03/21 11:22:32;;;;;;;;;;;12.20;41.30;;;;;;2364947;57;20132;-74
2022/03/21 11:25:00;;;;;;;;;;;12.30;42.10;;;;;;2363316;57;20144;-74
2022/03/21 11:27:35;;;;;;;;;;;12.30;41.80;;;;;;2364713;57;20476;-74
2022/03/21 11:30:07;;;;;;;;;;;12.40;41.70;;;;;;2615031;53;20106;-75
2022/03/21 11:32:41;;;;;;;;;;;12.50;41.40;;;;;;2364830;57;20117;-75
2022/03/21 11:35:10;;;;;;;;;;;12.60;41.60;;;;;;2365009;57;20078;-74
2022/03/21 11:37:37;;;;;;;;;;;12.60;39.20;;;;;;2365084;57;20122;-74
2022/03/21 11:40:21;;;;;;;;;;;12.70;39.10;;;;;;2614616;53;21062;-75
2022/03/21 11:42:48;;;;;;;;;;;12.70;38.50;;;;;;2364799;57;20101;-75
2022/03/21 11:45:22;;;;;;;;;;;12.70;38.00;;;;;;2364961;57;20062;-75
2022/03/21 11:47:48;;;;;;;;;;;12.80;38.40;;;;;;2364865;57;20062;-75
2022/03/21 11:50:28;;;;;;;;;;;12.90;38.80;;;;;;2364231;57;20066;-74
2022/03/21 11:53:08;;;;;;;;;;;13.00;39.80;;;;;;2615662;52;20137;-75
2022/03/21 11:55:38;;;;;;;;;;;13.10;41.30;;;;;;2364646;57;20074;-74
2022/03/21 11:58:22;;;;;;;;;;;13.20;40.00;;;;;;2363351;57;20136;-74
2022/03/21 12:01:06;;;;;;;;;;;13.20;39.60;;;;;;2363781;57;20066;-75
2022/03/21 12:03:32;;;;;;;;;;;13.30;39.70;;;;;;2364813;57;20118;-75
2022/03/21 12:06:22;;;;;;;;;;;13.40;38.70;;;;;;2364800;57;20134;-74
2022/03/21 12:08:50;;;;;;;;;;;13.40;38.60;;;;;;2364467;57;20069;-73
2022/03/21 12:11:54;;;;;;;;;;;13.50;40.30;;;;;;2364832;57;20070;-75
2022/03/21 12:14:22;;;;;;;;;;;13.60;40.20;;;;;;2362521;57;20117;-75
2022/03/21 12:17:24;;;;;;;;;;;13.70;39.30;;;;;;2364649;57;20062;-76
2022/03/21 12:20:02;;;;;;;;;;;13.70;41.70;;;;;;2364466;57;20070;-74
2022/03/21 12:23:00;;;;;;;;;;;13.90;39.40;;;;;;2365109;57;20303;-75
2022/03/21 12:25:43;;;;;;;;;;;13.90;42.40;;;;;;2363464;56;20078;-75
2022/03/21 12:29:31;;;;;;;;;;;14.00;39.30;;;;;;2614766;53;20058;-75
2022/03/21 12:32:17;;;;;;;;;;;14.00;37.60;;;;;;2363201;57;20368;-75
2022/03/21 12:34:44;;;;;;;;;;;14.10;38.60;;;;;;2361104;57;20090;-75
2022/03/21 12:37:23;;;;;;;;;;;14.20;38.40;;;;;;2363028;57;20078;-75
2022/03/21 12:39:49;;;;;;;;;;;14.20;37.30;;;;;;2362915;57;20082;-75
2022/03/21 12:42:17;;;;;;;;;;;14.20;37.70;;;;;;2363637;57;20129;-75
2022/03/21 12:44:43;;;;;;;;;;;14.30;36.40;;;;;;2363820;57;20078;-74
2022/03/21 12:47:10;;;;;;;;;;;14.30;35.30;;;;;;2364395;57;20066;-75
2022/03/21 12:49:46;;;;;;;;;;;14.30;36.10;;;;;;2361912;57;20062;-73
2022/03/21 12:52:24;;;;;;;;;;;14.30;36.40;;;;;;2364206;57;20411;-74
2022/03/21 12:54:50;;;;;;;;;;;14.30;36.00;;;;;;2362356;57;20339;-75
2022/03/21 12:57:17;;;;;;;;;;;14.40;36.80;;;;;;2364168;57;20073;-75
2022/03/21 12:59:43;;;;;;;;;;;14.40;37.60;;;;;;2363202;57;20110;-73
2022/03/21 13:02:22;;;;;;;;;;;14.50;41.10;;;;;;2362649;57;20992;-75
2022/03/21 13:10:34;;;;;;;;;;;14.60;37.40;;;;;;2363146;57;20121;-75
2022/03/21 13:13:01;;;;;;;;;;;14.60;36.80;;;;;;2364609;57;20125;-74
2022/03/21 13:15:28;;;;;;;;;;;14.60;36.90;;;;;;2363574;57;20141;-75
2022/03/21 13:17:57;;;;;;;;;;;14.70;37.60;;;;;;2361991;57;20140;-74
2022/03/21 13:20:27;;;;;;;;;;;14.70;37.70;;;;;;2362950;57;20129;-75
2022/03/21 13:22:54;;;;;;;;;;;14.80;37.20;;;;;;2364636;57;20070;-75
2022/03/21 13:25:28;;;;;;;;;;;14.80;36.30;;;;;;2363303;57;20074;-73
2022/03/21 13:28:08;;;;;;;;;;;14.90;35.60;;;;;;2362934;57;20050;-75
2022/03/21 13:30:35;;;;;;;;;;;14.90;37.60;;;;;;2364055;57;20050;-78
2022/03/21 13:33:02;;;;;;;;;;;14.90;37.30;;;;;;2615375;52;20110;-73
2022/03/21 13:35:29;;;;;;;;;;;15.00;37.30;;;;;;2363400;57;20121;-74
2022/03/21 13:38:02;;;;;;;;;;;15.00;36.70;;;;;;2362754;57;20102;-75
2022/03/21 13:40:29;;;;;;;;;;;15.10;38.30;;;;;;2613917;53;20126;-74
2022/03/21 13:42:55;;;;;;;;;;;15.10;36.60;;;;;;2363863;57;20181;-75
2022/03/21 13:45:22;;;;;;;;;;;15.20;35.20;;;;;;2363384;57;20137;-75
2022/03/21 13:47:49;;;;;;;;;;;15.20;35.10;;;;;;2364132;57;20348;-74
2022/03/21 13:50:16;;;;;;;;;;;15.20;36.20;;;;;;2363739;57;20109;-75
2022/03/21 13:52:44;;;;;;;;;;;15.30;35.40;;;;;;2363920;57;20070;-75
2022/03/21 13:55:11;;;;;;;;;;;15.40;36.20;;;;;;2614234;53;20055;-75
2022/03/21 13:57:49;;;;;;;;;;;15.40;35.70;;;;;;2363232;57;20149;-75
2022/03/21 14:00:17;;;;;;;;;;;15.40;36.10;;;;;;2364307;57;20079;-74
2022/03/21 14:02:44;;;;;;;;;;;15.50;35.60;;;;;;2364539;57;20173;-74
2022/03/21 14:05:15;;;;;;;;;;;15.60;38.20;;;;;;2364738;57;20117;-75
2022/03/21 14:07:42;;;;;;;;;;;15.60;38.00;;;;;;2364534;57;20082;-74
2022/03/21 14:10:13;;;;;;;;;;;15.70;38.00;;;;;;2364323;57;20134;-74
2022/03/21 14:12:41;;;;;;;;;;;15.70;37.10;;;;;;2614570;52;20146;-74
2022/03/21 14:17:45;;;;;;;;;;;15.70;34.00;;;;;;2359178;57;20112;-74
2022/03/21 14:20:12;;;;;;;;;;;15.70;35.10;;;;;;2377902;56;20403;-75
2022/03/21 14:22:38;;;;;;;;;;;15.70;34.60;;;;;;2398979;56;20066;-74
2022/03/21 14:26:29;;;;;;;;;;;15.70;34.90;;;;;;2406759;56;20680;-73
2022/03/21 14:28:56;;;;;;;;;;;15.70;35.00;;;;;;2406009;56;20303;-75
2022/03/21 14:31:22;;;;;;;;;;;15.80;34.50;;;;;;2406339;56;20159;-74
2022/03/21 14:33:49;;;;;;;;;;;15.70;34.60;;;;;;2401827;55;20104;31
2022/03/21 14:36:16;;;;;;;;;;;15.70;34.50;;;;;;2248868;60;20069;-73
2022/03/21 14:38:43;;;;;;;;;;;15.70;34.10;;;;;;2248583;60;20176;-73
2022/03/21 14:41:11;;;;;;;;;;;15.70;35.60;;;;;;2251729;59;20069;-74
2022/03/21 14:43:37;;;;;;;;;;;15.80;37.70;;;;;;2505196;55;20060;-74
2022/03/21 14:46:04;;;;;;;;;;;15.80;37.20;;;;;;2273744;59;20127;-74
2022/03/21 14:48:30;;;;;;;;;;;15.80;34.60;;;;;;2273338;59;20123;-72
2022/03/21 14:50:58;;;;;;;;;;;15.90;35.80;;;;;;2271978;59;20132;-74
2022/03/21 14:53:25;;;;;;;;;;;15.90;35.20;;;;;;2273762;59;20083;-75
2022/03/21 14:55:51;;;;;;;;;;;15.90;35.40;;;;;;2273972;59;20080;-74
2022/03/21 14:58:18;;;;;;;;;;;15.90;33.60;;;;;;2274132;59;20072;-75
2022/03/21 15:00:45;;;;;;;;;;;15.90;33.70;;;;;;2504474;55;20056;-74